Time;durP1;ratioP1;P1;durP2;ratioP2;P2;SDS_P1;SDS_P2;PMS_P1;PMS_P2;Temp;Humidity;BMP_temperature;BMP_pressure;BME280_temperature;BME280_humidity;BME280_pressure;Samples;Min_cycle;Max_cycle;Signal;HPM_P1;HPM_P2
2022/04/15 00:00:46;;;;;;;23.67;19.67;;;;;;;11.41;71.39;101112.31;5070541;28;20181;-75
2022/04/15 00:03:12;;;;;;;33.28;19.70;;;;;;;11.55;70.13;101120.31;5073428;28;20754;-75
2022/04/15 00:05:40;;;;;;;31.48;19.25;;;;;;;11.45;70.01;101126.38;5075672;28;20131;-73
2022/04/15 00:08:11;;;;;;;29.17;18.70;;;;;;;11.49;69.76;101124.63;5074248;28;20570;-73
2022/04/15 00:10:39;;;;;;;33.35;17.55;;;;;;;11.37;69.79;101126.28;5067729;28;20469;-73
2022/04/15 00:13:06;;;;;;;39.05;16.70;;;;;;;11.04;70.58;101112.88;5074110;28;20040;-72
2022/04/15 00:15:33;;;;;;;24.77;16.98;;;;;;;11.23;71.37;101116.53;5075581;28;20055;-73
2022/04/15 00:17:58;;;;;;;35.38;16.13;;;;;;;10.91;70.25;101124.97;5073661;28;20048;-73
2022/04/15 00:20:26;;;;;;;27.92;16.50;;;;;;;11.10;69.66;101120.81;5074264;28;20060;-72
2022/04/15 00:22:52;;;;;;;28.73;18.25;;;;;;;11.15;69.47;101116.47;5073256;28;20052;-72
2022/04/15 00:25:19;;;;;;;31.92;15.02;;;;;;;11.22;67.37;101120.91;5075628;28;20127;-72
2022/04/15 00:27:50;;;;;;;21.17;13.02;;;;;;;11.38;65.85;101117.56;5072903;28;20148;-73
2022/04/15 00:30:16;;;;;;;21.40;13.93;;;;;;;11.21;65.53;101116.50;5076314;28;20048;-72
2022/04/15 00:32:41;;;;;;;22.75;14.85;;;;;;;11.25;66.41;101109.56;5075429;28;20094;-74
2022/04/15 00:35:07;;;;;;;23.00;14.50;;;;;;;11.43;65.97;101114.09;5074955;28;20035;-72
2022/04/15 00:37:33;;;;;;;27.30;15.82;;;;;;;11.33;67.86;101098.25;5073920;28;20040;-75
2022/04/15 00:40:02;;;;;;;24.50;14.98;;;;;;;11.25;69.25;101113.06;5073639;28;20668;-72
2022/04/15 00:42:29;;;;;;;27.52;16.60;;;;;;;10.98;70.25;101105.81;5074116;28;20059;-73
2022/04/15 00:44:55;;;;;;;23.85;18.08;;;;;;;10.80;70.50;101116.13;5073058;28;20483;-73
2022/04/15 00:47:39;;;;;;;20.40;14.15;;;;;;;10.66;69.32;101108.13;5074755;28;20032;-71
2022/04/15 00:50:05;;;;;;;24.17;14.30;;;;;;;10.67;70.32;101110.72;5072242;28;20048;-71
2022/04/15 00:52:37;;;;;;;29.30;16.42;;;;;;;10.45;70.97;101104.38;5074534;28;20044;-71
2022/04/15 00:55:04;;;;;;;25.27;14.55;;;;;;;10.56;68.72;101107.13;5069667;28;20059;-72
2022/04/15 00:57:34;;;;;;;19.42;13.23;;;;;;;10.57;68.60;101109.75;5073816;28;20048;-72
2022/04/15 01:00:03;;;;;;;36.60;15.57;;;;;;;10.85;68.46;101106.56;5073723;28;20061;-74
2022/04/15 01:02:29;;;;;;;23.70;14.20;;;;;;;10.39;68.30;101122.66;5073413;28;20100;-72
2022/04/15 01:04:56;;;;;;;19.98;14.60;;;;;;;10.62;67.31;101117.69;5072931;28;20063;-73
2022/04/15 01:07:27;;;;;;;23.13;14.60;;;;;;;10.59;67.25;101106.28;5073165;28;20049;-71
2022/04/15 01:09:53;;;;;;;18.20;15.07;;;;;;;10.74;70.45;101106.44;5071858;28;20777;-74
2022/04/15 01:12:22;;;;;;;28.38;15.85;;;;;;;10.52;71.14;101111.44;5074427;28;20043;-72
2022/04/15 01:14:48;;;;;;;24.27;13.93;;;;;;;10.49;71.61;101110.56;5072609;28;20135;-71
2022/04/15 01:17:14;;;;;;;21.52;14.32;;;;;;;10.43;72.43;101102.59;5072555;28;20102;-71
2022/04/15 01:19:40;;;;;;;22.52;14.48;;;;;;;10.32;73.67;101116.47;5071837;28;20572;-73
2022/04/15 01:22:12;;;;;;;24.67;15.15;;;;;;;10.29;73.07;101112.94;5072157;28;20064;-71
2022/04/15 01:24:38;;;;;;;19.33;13.95;;;;;;;10.35;72.61;101099.91;5072284;28;20080;-72
2022/04/15 01:27:07;;;;;;;23.58;14.13;;;;;;;10.41;73.68;101113.06;5072903;28;20032;-72
2022/04/15 01:29:40;;;;;;;34.90;15.18;;;;;;;10.27;72.65;101091.88;5071067;28;20562;-72
2022/04/15 01:32:07;;;;;;;20.67;14.57;;;;;;;10.25;72.15;101096.22;5073870;28;20044;-72
2022/04/15 01:34:34;;;;;;;27.45;15.98;;;;;;;10.29;72.10;101099.81;5072464;28;20040;-71
2022/04/15 01:37:03;;;;;;;26.55;15.02;;;;;;;10.24;72.56;101101.47;5071395;28;20116;-72
2022/04/15 01:39:31;;;;;;;19.50;13.15;;;;;;;10.05;73.00;101102.97;5071710;28;20044;-71
2022/04/15 01:41:57;;;;;;;28.73;14.93;;;;;;;10.19;73.67;101088.28;5071705;28;20097;-73
2022/04/15 01:44:23;;;;;;;28.58;15.18;;;;;;;9.89;72.58;101073.03;5072280;28;20040;-73
2022/04/15 01:46:49;;;;;;;24.13;14.68;;;;;;;10.07;72.91;101082.91;5071421;28;20051;-71
2022/04/15 01:49:15;;;;;;;18.52;13.10;;;;;;;10.13;72.44;101081.22;5071611;28;20139;-72
2022/04/15 01:51:40;;;;;;;28.90;13.57;;;;;;;9.82;72.05;101063.34;5071580;28;20122;-71
2022/04/15 01:54:05;;;;;;;22.48;17.10;;;;;;;9.96;71.44;101079.25;5073240;28;20048;-71
2022/04/15 01:56:31;;;;;;;20.88;16.55;;;;;;;10.10;70.43;101075.94;5074247;28;20392;-71
2022/04/15 01:58:57;;;;;;;23.58;15.75;;;;;;;10.15;71.11;101065.50;5072811;28;20044;-73
2022/04/15 02:01:22;;;;;;;37.45;15.02;;;;;;;9.84;71.41;101074.72;5071237;28;20407;-73
2022/04/15 02:03:48;;;;;;;24.17;15.40;;;;;;;9.73;72.52;101066.72;5073203;28;20044;-72
2022/04/15 02:06:13;;;;;;;22.58;14.38;;;;;;;9.79;71.86;101068.56;5070047;28;20039;-71
2022/04/15 02:08:39;;;;;;;22.13;14.98;;;;;;;9.88;71.97;101069.56;5073076;28;20391;-71
2022/04/15 02:11:04;;;;;;;34.08;15.25;;;;;;;9.80;72.19;101059.81;5070400;28;20055;-71
2022/04/15 02:13:30;;;;;;;26.40;14.75;;;;;;;10.08;70.81;101071.53;5072744;28;20051;-74
2022/04/15 02:15:55;;;;;;;25.42;13.00;;;;;;;9.91;71.14;101068.72;5072946;28;20700;-72
2022/04/15 02:18:21;;;;;;;22.42;14.20;;;;;;;9.97;70.79;101066.16;5071078;28;20052;-72
2022/04/15 02:20:47;;;;;;;22.15;15.73;;;;;;;10.01;69.97;101059.22;5072390;28;21487;-72
2022/04/15 02:23:12;;;;;;;19.60;14.18;;;;;;;10.10;69.37;101072.44;5072942;28;20064;-72
2022/04/15 02:25:37;;;;;;;19.85;12.65;;;;;;;10.06;69.22;101070.63;5072519;28;20603;-72
2022/04/15 02:28:03;;;;;;;20.95;12.63;;;;;;;9.71;70.31;101055.31;5072347;28;20369;-71
2022/04/15 02:30:28;;;;;;;20.85;13.82;;;;;;;9.55;70.33;101045.47;5075458;28;20779;-71
2022/04/15 02:32:54;;;;;;;27.13;13.02;;;;;;;9.66;69.68;101063.13;5078563;28;20450;-71
2022/04/15 02:35:19;;;;;;;16.35;11.50;;;;;;;9.54;69.01;101068.19;5076236;28;20074;-72
2022/04/15 02:37:45;;;;;;;16.63;12.90;;;;;;;9.72;68.17;101068.44;5076325;28;20085;-72
2022/04/15 02:40:11;;;;;;;18.38;12.43;;;;;;;9.42;69.15;101054.91;5077075;28;20867;-71
2022/04/15 02:42:36;;;;;;;17.80;11.88;;;;;;;9.12;68.09;101055.31;5075233;28;20055;-71
2022/04/15 02:45:04;;;;;;;17.83;12.32;;;;;;;9.38;67.52;101064.44;5075482;28;20552;-71
2022/04/15 02:47:29;;;;;;;17.77;11.13;;;;;;;9.45;66.99;101073.28;5075959;28;20031;-71
2022/04/15 02:49:55;;;;;;;17.20;11.73;;;;;;;9.79;65.22;101065.94;5074906;28;20052;-72
2022/04/15 02:52:21;;;;;;;18.08;11.68;;;;;;;9.50;65.41;101067.28;5076787;28;20048;-71
2022/04/15 02:54:47;;;;;;;21.77;13.02;;;;;;;9.44;65.42;101061.06;5075195;28;20056;-73
2022/04/15 02:57:12;;;;;;;21.08;12.35;;;;;;;9.43;65.70;101057.53;5074858;28;20068;-71
2022/04/15 02:59:38;;;;;;;19.10;12.70;;;;;;;9.41;65.01;101053.13;5078515;28;20499;-72
2022/04/15 03:02:04;;;;;;;17.40;11.55;;;;;;;9.48;65.16;101054.97;5074006;28;20535;-71
2022/04/15 03:04:29;;;;;;;20.20;10.95;;;;;;;9.49;64.11;101049.78;5075742;28;20094;-71
2022/04/15 03:06:54;;;;;;;17.67;12.02;;;;;;;9.20;65.49;101051.06;5074941;28;20467;-71
2022/04/15 03:09:21;;;;;;;17.05;10.50;;;;;;;9.12;65.69;101053.56;5074342;28;20094;-75
2022/04/15 03:11:47;;;;;;;16.40;10.50;;;;;;;9.12;66.28;101056.19;5074419;28;20044;-72
2022/04/15 03:14:13;;;;;;;14.88;11.25;;;;;;;9.09;65.00;101057.03;5074861;28;20043;-72
2022/04/15 03:16:38;;;;;;;19.13;12.10;;;;;;;9.28;64.74;101045.09;5075067;28;20289;-72
2022/04/15 03:19:04;;;;;;;14.80;10.90;;;;;;;9.25;64.83;101067.75;5076653;28;20039;-72
2022/04/15 03:21:29;;;;;;;15.40;11.20;;;;;;;9.59;62.94;101058.66;5075473;28;20466;-72
2022/04/15 03:23:55;;;;;;;17.27;11.52;;;;;;;9.28;64.38;101059.94;5075411;28;20031;-73
2022/04/15 03:26:23;;;;;;;16.20;10.48;;;;;;;9.54;62.52;101041.13;5077224;28;20869;-74
2022/04/15 03:28:49;;;;;;;18.65;10.20;;;;;;;9.58;64.27;101061.25;5075234;28;20053;-73
2022/04/15 03:31:15;;;;;;;27.23;13.00;;;;;;;9.44;69.00;101042.72;5075185;28;20064;-72
2022/04/15 03:33:40;;;;;;;21.92;13.50;;;;;;;9.47;70.87;101058.47;5075631;28;20044;-73
2022/04/15 03:36:06;;;;;;;20.95;12.52;;;;;;;9.24;71.62;101030.19;5075494;28;20563;-72
2022/04/15 03:38:31;;;;;;;26.83;14.70;;;;;;;9.09;71.95;101043.94;5073407;28;20523;-72
2022/04/15 03:40:57;;;;;;;20.10;13.15;;;;;;;9.34;71.06;101043.41;5075503;28;20079;-71
2022/04/15 03:43:23;;;;;;;24.88;14.70;;;;;;;9.39;71.26;101041.75;5072833;28;20101;-72
2022/04/15 03:45:48;;;;;;;26.17;14.55;;;;;;;9.42;70.67;101044.44;5074089;28;20056;-72
2022/04/15 03:48:14;;;;;;;24.40;13.18;;;;;;;9.28;70.46;101041.59;5074730;28;20052;-72
2022/04/15 03:50:39;;;;;;;28.45;13.57;;;;;;;9.17;71.04;101044.03;5074069;28;20506;-74
2022/04/15 03:53:04;;;;;;;23.83;11.23;;;;;;;9.16;71.48;101047.53;5074184;28;20082;-74
2022/04/15 03:55:30;;;;;;;27.15;12.48;;;;;;;8.87;71.29;101040.09;5074478;28;20067;-72
2022/04/15 03:57:55;;;;;;;23.42;12.13;;;;;;;8.95;70.12;101044.56;5073211;28;20048;-74
2022/04/15 04:00:23;;;;;;;21.92;11.85;;;;;;;9.11;71.49;101045.69;5072212;28;20129;-72
2022/04/15 04:02:52;;;;;;;28.80;12.70;;;;;;;9.23;72.05;101031.06;5075330;28;20032;-72
2022/04/15 04:05:18;;;;;;;27.40;13.02;;;;;;;9.20;70.73;101032.72;5073692;28;20049;-73
2022/04/15 04:07:44;;;;;;;22.95;14.77;;;;;;;9.17;69.93;101030.94;5073402;28;20047;-71
2022/04/15 04:10:12;;;;;;;24.10;13.27;;;;;;;9.32;71.04;101037.28;5076165;28;20518;-72
2022/04/15 04:12:38;;;;;;;28.30;13.73;;;;;;;9.43;70.20;101033.97;5074201;28;20073;-71
2022/04/15 04:15:06;;;;;;;25.70;13.85;;;;;;;9.39;69.48;101034.78;5074622;28;20040;-72
2022/04/15 04:17:32;;;;;;;28.35;13.82;;;;;;;9.27;69.98;101032.88;5074888;28;20044;-72
2022/04/15 04:19:57;;;;;;;28.40;13.18;;;;;;;9.39;71.21;101041.75;5073499;28;20049;-72
2022/04/15 04:22:33;;;;;;;32.13;12.18;;;;;;;9.20;71.18;101037.97;5074052;28;20726;-73
2022/04/15 04:24:59;;;;;;;24.33;11.85;;;;;;;9.40;69.82;101038.28;5073235;28;20044;-72
2022/04/15 04:27:25;;;;;;;15.93;11.45;;;;;;;9.52;66.73;101035.84;5070368;28;20113;-72
2022/04/15 04:29:51;;;;;;;21.10;12.82;;;;;;;9.69;65.45;101052.69;5070966;28;20024;-71
2022/04/15 04:32:17;;;;;;;21.83;11.57;;;;;;;9.93;63.72;101044.28;5057556;28;20051;-71
2022/04/15 04:34:43;;;;;;;36.42;13.05;;;;;;;9.78;65.02;101044.06;5071447;28;20080;-72
2022/04/15 04:37:09;;;;;;;32.97;19.58;;;;;;;9.97;63.59;101058.28;5073973;28;20155;-73
2022/04/15 04:39:34;;;;;;;70.78;38.25;;;;;;;10.08;62.52;101061.06;5057254;28;20059;-72
2022/04/15 04:42:00;;;;;;;62.25;26.60;;;;;;;10.07;62.14;101054.94;5071679;28;20069;-72
2022/04/15 04:44:27;;;;;;;32.90;16.92;;;;;;;10.10;67.50;101056.72;5073595;28;20028;-72
2022/04/15 04:46:53;;;;;;;39.40;18.10;;;;;;;10.11;65.91;101046.25;5074079;28;20048;-72
2022/04/15 04:49:19;;;;;;;34.50;18.45;;;;;;;10.06;66.52;101040.03;5073072;28;20198;-75
2022/04/15 04:51:51;;;;;;;21.38;14.50;;;;;;;10.25;64.34;101061.25;5072702;28;21202;-73
2022/04/15 04:54:16;;;;;;;28.95;13.85;;;;;;;10.11;65.99;101063.69;5068742;28;20145;-72
2022/04/15 04:56:42;;;;;;;35.55;14.60;;;;;;;10.33;64.97;101071.00;5074790;28;20118;-72
2022/04/15 04:59:07;;;;;;;22.25;14.10;;;;;;;10.15;65.26;101069.00;5071936;28;20048;-71
2022/04/15 05:01:33;;;;;;;26.17;14.52;;;;;;;10.31;63.67;101061.38;5070661;28;20043;-71
2022/04/15 05:03:58;;;;;;;29.92;20.48;;;;;;;10.49;63.90;101069.44;5072464;28;20103;-72
2022/04/15 05:06:24;;;;;;;19.88;14.52;;;;;;;10.67;61.20;101062.63;5073727;28;20040;-71
2022/04/15 05:08:50;;;;;;;26.23;15.65;;;;;;;10.91;61.09;101069.84;5073094;28;20558;-72
2022/04/15 05:11:16;;;;;;;27.92;16.05;;;;;;;10.92;60.23;101058.50;5072355;28;20399;-72
2022/04/15 05:13:41;;;;;;;24.77;15.90;;;;;;;11.18;59.41;101058.69;5070799;28;20116;-73
2022/04/15 05:16:07;;;;;;;22.23;15.65;;;;;;;11.39;59.29;101076.38;5072483;28;20136;-72
2022/04/15 05:18:32;;;;;;;22.70;14.57;;;;;;;11.28;61.60;101076.28;5083914;28;20052;-75
2022/04/15 05:20:58;;;;;;;21.90;14.48;;;;;;;11.29;60.86;101074.56;5071255;28;20039;-72
2022/04/15 05:23:23;;;;;;;22.23;13.10;;;;;;;11.77;56.22;101078.38;5072455;28;20043;-73
2022/04/15 05:25:49;;;;;;;23.83;12.07;;;;;;;11.91;55.67;101065.34;5069529;28;20076;-72
2022/04/15 05:28:14;;;;;;;24.13;12.38;;;;;;;12.06;57.99;101078.56;5066207;28;20450;-74
2022/04/15 05:30:40;;;;;;;33.50;12.13;;;;;;;12.27;57.93;101069.91;5066769;28;20041;-72
2022/04/15 05:33:05;;;;;;;27.45;12.43;;;;;;;12.43;56.55;101068.16;5059114;28;20399;-72
2022/04/15 05:35:31;;;;;;;20.85;12.60;;;;;;;12.95;55.22;101072.69;5061890;28;20051;-73
2022/04/15 05:37:56;;;;;;;17.80;11.43;;;;;;;13.05;55.80;101080.56;5063319;28;20044;-74
2022/04/15 05:40:22;;;;;;;16.92;11.73;;;;;;;12.81;55.77;101057.72;5070050;28;20439;-73
2022/04/15 05:42:48;;;;;;;17.45;11.30;;;;;;;13.36;55.02;101074.47;5068002;28;20055;-73
2022/04/15 05:45:14;;;;;;;24.02;12.73;;;;;;;13.25;52.44;101053.34;5067799;28;20032;-72
2022/04/15 05:47:39;;;;;;;19.10;11.40;;;;;;;13.44;53.61;101046.34;5072935;28;20459;-72
2022/04/15 05:50:06;;;;;;;30.95;11.68;;;;;;;13.93;53.14;101054.13;5055970;28;20425;-75
2022/04/15 05:52:33;;;;;;;17.75;11.70;;;;;;;13.80;53.39;101052.41;5063682;28;20044;-74
2022/04/15 05:54:58;;;;;;;20.25;10.95;;;;;;;14.04;52.24;101060.22;5060437;28;20349;-74
2022/04/15 05:57:24;;;;;;;24.48;12.60;;;;;;;14.43;50.83;101066.22;5074553;28;20044;-72
2022/04/15 05:59:49;;;;;;;22.10;13.25;;;;;;;14.24;51.41;101059.28;5069732;28;20032;-73
2022/04/15 06:02:15;;;;;;;18.05;12.35;;;;;;;14.93;52.03;101048.31;5068871;28;20041;-73
2022/04/15 06:04:40;;;;;;;20.42;13.25;;;;;;;14.88;52.08;101047.47;5072139;28;20411;-74
2022/04/15 06:07:06;;;;;;;24.77;13.30;;;;;;;15.06;51.26;101049.97;5072535;28;20051;-74
2022/04/15 06:09:31;;;;;;;21.02;12.68;;;;;;;15.35;50.70;101027.69;5073138;28;20052;-74
2022/04/15 06:11:57;;;;;;;21.98;12.95;;;;;;;15.22;50.60;101048.09;5070179;28;20032;-76
2022/04/15 06:14:22;;;;;;;27.58;14.57;;;;;;;15.46;47.51;101041.69;5071995;28;20122;-76
2022/04/15 06:16:49;;;;;;;32.38;13.35;;;;;;;15.38;49.08;101040.88;5070829;28;20048;-74
2022/04/15 06:19:16;;;;;;;28.60;14.15;;;;;;;15.89;48.04;101049.16;5074177;28;20044;-74
2022/04/15 06:21:42;;;;;;;28.85;14.60;;;;;;;15.93;48.66;101044.72;5072174;28;20746;-74
2022/04/15 06:24:10;;;;;;;26.52;12.35;;;;;;;16.08;47.49;101049.81;5071297;28;20036;-75
2022/04/15 06:26:36;;;;;;;33.53;13.63;;;;;;;16.01;45.37;101051.69;5071313;28;20150;-73
2022/04/15 06:29:01;;;;;;;17.08;11.90;;;;;;;15.25;45.44;101042.75;5072771;28;20044;-74
2022/04/15 06:31:27;;;;;;;23.27;13.57;;;;;;;15.77;48.00;101044.03;5067227;28;20403;-72
2022/04/15 06:33:52;;;;;;;20.70;13.02;;;;;;;15.58;45.42;101049.47;5070194;28;20040;-73
2022/04/15 06:36:21;;;;;;;25.67;12.00;;;;;;;15.83;44.23;101028.09;5072373;28;20043;-73
2022/04/15 06:38:46;;;;;;;27.58;11.65;;;;;;;15.96;44.03;101049.97;5071514;28;20040;-74
2022/04/15 06:41:12;;;;;;;18.60;12.27;;;;;;;15.88;44.40;101046.56;5069505;28;20705;-73
2022/04/15 06:43:38;;;;;;;21.23;12.23;;;;;;;16.21;43.85;101045.25;5072654;28;20044;-74
2022/04/15 06:46:05;;;;;;;19.40;11.73;;;;;;;16.65;44.38;101049.94;5070952;28;20052;-73
2022/04/15 06:48:30;;;;;;;26.98;13.13;;;;;;;16.22;42.68;101041.72;5062898;28;20452;-74
2022/04/15 06:50:56;;;;;;;43.85;13.55;;;;;;;16.25;43.52;101039.03;5070481;28;20036;-74
2022/04/15 06:53:23;;;;;;;33.33;13.80;;;;;;;16.22;44.58;101031.13;5071982;28;20044;-73
2022/04/15 06:55:52;;;;;;;20.00;13.45;;;;;;;16.48;44.35;101048.44;5069036;28;20052;-75
2022/04/15 06:58:18;;;;;;;28.48;13.75;;;;;;;16.32;42.70;101042.44;5071085;28;20124;-73
2022/04/15 07:00:45;;;;;;;21.75;13.35;;;;;;;16.42;42.56;101044.09;5064074;28;20056;-74
2022/04/15 07:03:12;;;;;;;23.23;11.27;;;;;;;16.53;43.00;101041.28;5070361;28;20032;-73
2022/04/15 07:05:42;;;;;;;26.90;10.63;;;;;;;16.73;41.94;101035.69;5073938;28;20320;-76
2022/04/15 07:08:09;;;;;;;17.08;11.57;;;;;;;16.68;40.90;101031.34;5069715;28;20690;-74
2022/04/15 07:10:35;;;;;;;25.02;11.88;;;;;;;16.79;41.12;101030.34;5074957;28;20040;-73
2022/04/15 07:13:01;;;;;;;16.60;9.32;;;;;;;16.66;40.59;101027.81;5067443;28;20466;-73
2022/04/15 07:15:27;;;;;;;14.10;9.60;;;;;;;16.78;40.25;101031.19;5072098;28;20048;-74
2022/04/15 07:17:52;;;;;;;18.75;12.07;;;;;;;17.15;40.42;101015.59;5074108;28;20031;-73
2022/04/15 07:20:18;;;;;;;21.25;11.98;;;;;;;17.25;40.91;101019.81;5075099;28;20040;-72
2022/04/15 07:22:45;;;;;;;22.25;13.73;;;;;;;17.34;39.46;101021.44;5073394;28;20905;-74
2022/04/15 07:25:10;;;;;;;21.10;11.30;;;;;;;17.02;39.63;101030.84;5073794;28;20574;-74
2022/04/15 07:27:36;;;;;;;20.55;12.45;;;;;;;17.20;40.26;101015.50;5072938;28;20049;-73
2022/04/15 07:30:01;;;;;;;18.42;11.18;;;;;;;17.39;39.65;101016.03;5076486;28;20055;-74
2022/04/15 07:32:28;;;;;;;22.25;9.95;;;;;;;17.05;39.66;101024.63;5070332;28;20028;-74
2022/04/15 07:34:54;;;;;;;17.13;10.60;;;;;;;17.46;38.66;101010.59;5073046;28;20060;-76
2022/04/15 07:37:20;;;;;;;14.13;9.63;;;;;;;17.57;37.99;101022.81;5073911;28;20120;-73
2022/04/15 07:39:46;;;;;;;18.63;8.43;;;;;;;17.61;37.25;101016.53;5074408;28;20078;-72
2022/04/15 07:42:12;;;;;;;14.00;8.63;;;;;;;17.52;37.78;101015.78;5075398;28;20134;-73
2022/04/15 07:44:39;;;;;;;14.60;10.18;;;;;;;17.74;37.51;101020.69;5075365;28;20097;-73
2022/04/15 07:47:05;;;;;;;13.73;9.95;;;;;;;17.67;37.40;101009.31;5071644;28;20055;-75
2022/04/15 07:49:30;;;;;;;14.57;9.48;;;;;;;17.84;37.85;101006.38;5073483;28;20044;-74
2022/04/15 07:51:56;;;;;;;14.13;9.50;;;;;;;17.96;37.91;101004.34;5073437;28;20045;-74
2022/04/15 07:54:21;;;;;;;10.55;7.07;;;;;;;17.92;38.05;101006.19;5073511;28;20519;-74
2022/04/15 07:56:47;;;;;;;17.73;8.68;;;;;;;17.85;37.48;100994.81;5075411;28;20052;-74
2022/04/15 07:59:12;;;;;;;14.95;7.63;;;;;;;18.24;36.78;101000.19;5071660;28;20053;-75
2022/04/15 08:01:38;;;;;;;9.95;8.00;;;;;;;18.12;37.35;101004.00;5073698;28;20671;-73
2022/04/15 08:04:05;;;;;;;18.83;8.35;;;;;;;18.03;37.33;101001.53;5074211;28;20036;-75
2022/04/15 08:06:31;;;;;;;23.35;8.63;;;;;;;18.01;36.31;101000.69;5072940;28;20055;-73
2022/04/15 08:08:58;;;;;;;11.73;8.90;;;;;;;17.90;36.41;101011.53;5071993;28;20597;-74
2022/04/15 08:11:25;;;;;;;14.85;9.35;;;;;;;18.14;36.25;101012.81;5075244;28;20093;-73
2022/04/15 08:13:51;;;;;;;15.80;8.82;;;;;;;18.11;36.12;101001.38;5074076;28;20048;-73
2022/04/15 08:16:16;;;;;;;13.27;9.02;;;;;;;18.28;35.75;101006.31;5073362;28;20036;-74
2022/04/15 08:18:42;;;;;;;15.52;8.55;;;;;;;18.22;37.08;101006.47;5075107;28;20044;-74
2022/04/15 08:21:08;;;;;;;20.50;10.23;;;;;;;18.21;37.13;101002.03;5074406;28;20248;-73
2022/04/15 08:23:34;;;;;;;22.30;10.10;;;;;;;18.19;37.13;100996.78;5071440;28;20059;-74
2022/04/15 08:25:59;;;;;;;14.70;9.35;;;;;;;18.51;36.34;100997.81;5070024;28;20087;-74
2022/04/15 08:28:30;;;;;;;19.35;8.18;;;;;;;18.68;35.90;100995.66;5064352;28;20040;-76
2022/04/15 08:30:56;;;;;;;13.75;9.02;;;;;;;18.70;35.18;100992.94;5072384;28;20043;-76
2022/04/15 08:33:22;;;;;;;17.00;9.73;;;;;;;18.75;35.63;100975.97;5071015;28;20436;-76
2022/04/15 08:35:48;;;;;;;12.00;7.38;;;;;;;18.73;35.06;100966.25;5074178;28;20860;-74
2022/04/15 08:38:14;;;;;;;16.00;8.60;;;;;;;18.88;36.31;100978.34;5071435;28;20117;-74
2022/04/15 08:40:46;;;;;;;12.55;8.57;;;;;;;18.87;35.15;100972.16;5066729;28;20064;-74
2022/04/15 08:43:11;;;;;;;15.18;7.30;;;;;;;18.91;33.70;100970.28;5071812;28;20059;-74
2022/04/15 08:45:41;;;;;;;16.42;7.80;;;;;;;18.86;33.62;100969.53;5073429;28;20058;-74
2022/04/15 08:48:08;;;;;;;17.38;8.55;;;;;;;19.00;34.78;100966.53;5072126;28;20053;-75
2022/04/15 08:50:33;;;;;;;10.95;6.53;;;;;;;19.10;33.25;100958.25;5074662;28;20717;-72
2022/04/15 08:53:00;;;;;;;9.75;6.20;;;;;;;19.01;33.25;100957.63;5073345;28;20044;-74
2022/04/15 08:55:27;;;;;;;12.07;6.80;;;;;;;19.22;32.58;100969.47;5071460;28;20083;-74
2022/04/15 08:57:53;;;;;;;8.00;5.60;;;;;;;19.26;33.14;100958.72;5074178;28;20051;-74
2022/04/15 09:00:20;;;;;;;14.32;6.95;;;;;;;19.33;33.69;100948.78;5071659;28;20388;-72
2022/04/15 09:02:47;;;;;;;13.25;7.53;;;;;;;19.07;32.97;100952.16;5073386;28;20441;-73
2022/04/15 09:05:17;;;;;;;10.25;6.57;;;;;;;19.07;33.75;100939.72;5071077;28;20403;-74
2022/04/15 09:07:43;;;;;;;14.70;7.88;;;;;;;19.33;34.50;100948.78;5073654;28;20490;-74
2022/04/15 09:10:10;;;;;;;16.38;7.28;;;;;;;19.05;33.46;100938.00;5072738;28;20040;-75
2022/04/15 09:12:36;;;;;;;11.23;7.63;;;;;;;19.27;34.87;100939.19;5071607;28;20110;-74
2022/04/15 09:15:07;;;;;;;11.48;7.00;;;;;;;19.69;33.44;100940.69;5072973;28;20040;-74
2022/04/15 09:17:39;;;;;;;7.95;5.93;;;;;;;19.51;33.23;100926.97;5072986;28;20054;-74
2022/04/15 09:20:07;;;;;;;10.30;6.93;;;;;;;19.42;33.96;100921.03;5071529;28;20044;-73
2022/04/15 09:22:33;;;;;;;9.25;6.70;;;;;;;19.56;34.14;100921.50;5074785;28;20068;-75
2022/04/15 09:24:59;;;;;;;11.20;6.88;;;;;;;19.64;32.84;100923.94;5071654;28;20060;-74
2022/04/15 09:27:25;;;;;;;11.48;7.63;;;;;;;19.54;33.81;100921.53;5072142;28;20131;-73
2022/04/15 09:29:54;;;;;;;12.07;7.85;;;;;;;19.61;34.20;100920.44;5070756;28;20107;-73
2022/04/15 09:32:22;;;;;;;17.10;7.65;;;;;;;19.84;33.18;100916.28;5073098;28;20044;-73
2022/04/15 09:35:19;;;;;;;13.32;7.50;;;;;;;20.22;33.56;100912.41;5072845;28;20048;-73
2022/04/15 09:37:45;;;;;;;9.73;7.72;;;;;;;20.11;33.49;100914.56;5070190;28;20182;-75
2022/04/15 09:40:20;;;;;;;16.60;7.93;;;;;;;20.16;34.22;100898.44;5071166;28;20051;-75
2022/04/15 09:42:50;;;;;;;15.07;6.88;;;;;;;20.52;34.69;100898.13;5073976;28;20495;-74
2022/04/15 09:45:21;;;;;;;13.00;7.70;;;;;;;20.48;34.64;100889.34;5070670;28;20071;-74
2022/04/15 09:47:57;;;;;;;18.77;7.22;;;;;;;20.56;34.03;100895.34;5073268;28;20089;-74
2022/04/15 09:50:30;;;;;;;19.27;8.77;;;;;;;20.80;34.97;100890.09;5074192;28;20126;-73
2022/04/15 09:53:18;;;;;;;11.93;8.15;;;;;;;21.27;34.52;100890.19;5065438;28;20051;-73
2022/04/15 09:55:46;;;;;;;16.52;10.10;;;;;;;21.38;33.59;100893.34;5069256;28;20062;-73
2022/04/15 09:58:28;;;;;;;18.17;7.95;;;;;;;21.24;32.91;100896.50;5071358;28;20048;-75
2022/04/15 10:00:59;;;;;;;20.70;8.02;;;;;;;21.91;34.17;100885.13;5067664;28;20110;-73
2022/04/15 10:03:27;;;;;;;21.88;6.72;;;;;;;21.70;32.91;100877.91;5072845;28;20072;-74
2022/04/15 10:05:54;;;;;;;31.55;8.68;;;;;;;21.53;34.24;100875.03;5071760;28;20036;-75
2022/04/15 10:08:21;;;;;;;17.20;8.68;;;;;;;22.16;33.07;100876.09;5072388;28;20055;-72
2022/04/15 10:10:47;;;;;;;10.13;5.95;;;;;;;22.10;32.44;100869.22;5070991;28;20062;-74
2022/04/15 10:13:17;;;;;;;12.93;6.32;;;;;;;22.42;35.13;100874.19;5071506;28;20048;-75
2022/04/15 10:15:43;;;;;;;11.55;6.30;;;;;;;22.18;30.28;100871.56;5072181;28;20040;-75
2022/04/15 10:18:09;;;;;;;13.07;6.72;;;;;;;21.78;31.52;100861.59;5068472;28;20024;-74
2022/04/15 10:20:38;;;;;;;13.18;5.57;;;;;;;21.88;31.33;100868.31;5070535;28;20054;-75
2022/04/15 10:23:11;;;;;;;13.77;5.88;;;;;;;21.95;32.16;100859.13;5072787;28;20047;-73
2022/04/15 10:25:38;;;;;;;10.18;4.80;;;;;;;21.46;29.70;100861.03;5071258;28;20047;-73
2022/04/15 10:28:11;;;;;;;10.10;5.57;;;;;;;21.80;32.78;100847.25;5072217;28;20067;-74
2022/04/15 10:30:38;;;;;;;14.95;6.07;;;;;;;21.83;30.66;100832.91;5072001;28;20076;-74
2022/04/15 10:33:03;;;;;;;8.40;5.45;;;;;;;22.31;30.47;100842.53;5074593;28;20040;-75
2022/04/15 10:35:29;;;;;;;13.23;5.82;;;;;;;22.57;32.97;100837.88;5071883;28;20040;-74
2022/04/15 10:38:02;;;;;;;8.60;5.95;;;;;;;22.59;31.59;100828.00;5073123;28;20048;-74
2022/04/15 10:40:31;;;;;;;11.32;6.55;;;;;;;23.05;31.51;100823.31;5071901;28;20090;-74
2022/04/15 10:43:04;;;;;;;11.90;6.38;;;;;;;23.28;32.79;100828.47;5072447;28;20571;-74
2022/04/15 10:45:35;;;;;;;8.88;6.32;;;;;;;22.32;29.84;100812.19;5072476;28;20084;-72
2022/04/15 10:48:02;;;;;;;9.65;7.57;;;;;;;22.07;32.52;100825.69;5072443;28;20036;-73
2022/04/15 10:50:29;;;;;;;11.40;6.75;;;;;;;22.52;32.53;100820.25;5075412;28;20036;-73
2022/04/15 10:53:26;;;;;;;17.55;6.38;;;;;;;22.15;30.61;100815.56;5072388;28;20377;-72
2022/04/15 10:55:54;;;;;;;11.23;6.82;;;;;;;22.51;31.86;100804.25;5074952;28;20052;-75
2022/04/15 10:58:21;;;;;;;10.52;7.10;;;;;;;22.22;30.65;100824.19;5076275;28;20176;-72
2022/04/15 11:01:16;;;;;;;10.15;6.05;;;;;;;22.44;34.10;100808.13;5071437;28;20056;-74
2022/04/15 11:03:42;;;;;;;17.95;5.22;;;;;;;22.91;29.74;100813.19;5073441;28;20128;-73
2022/04/15 11:06:09;;;;;;;9.35;4.60;;;;;;;23.36;31.86;100810.22;5074036;28;20062;-73
2022/04/15 11:08:46;;;;;;;9.13;4.57;;;;;;;23.27;30.20;100807.13;5076405;28;20110;-73
2022/04/15 11:11:11;;;;;;;11.52;6.10;;;;;;;22.94;30.66;100799.66;5074089;28;20495;-74
2022/04/15 11:13:40;;;;;;;9.60;5.03;;;;;;;23.44;32.00;100803.69;5076747;28;20055;-73